Time;durP1;ratioP1;P1;durP2;ratioP2;P2;SDS_P1;SDS_P2;PMS_P1;PMS_P2;Temp;Humidity;BMP_temperature;BMP_pressure;BME280_temperature;BME280_humidity;BME280_pressure;Samples;Min_cycle;Max_cycle;Signal;HPM_P1;HPM_P2
2023/07/25 00:02:20;;;;;;;4.70;3.50;;;;;;;12.63;100.00;100551.91;4995032;28;20478;-60
2023/07/25 00:04:46;;;;;;;7.10;3.33;;;;;;;12.59;100.00;100551.81;4998659;28;20037;-61
2023/07/25 00:07:11;;;;;;;5.88;3.65;;;;;;;12.60;100.00;100557.91;4988305;28;20037;-59
2023/07/25 00:09:36;;;;;;;5.32;4.22;;;;;;;12.56;100.00;100566.47;4987850;28;20475;-61
2023/07/25 00:12:01;;;;;;;6.47;3.97;;;;;;;12.54;100.00;100558.66;4989039;28;20026;-60
2023/07/25 00:14:27;;;;;;;9.25;3.72;;;;;;;12.52;100.00;100556.91;4988921;28;20034;-60
2023/07/25 00:16:53;;;;;;;4.55;3.90;;;;;;;12.51;100.00;100557.72;4989219;28;20125;-61
2023/07/25 00:19:18;;;;;;;5.82;4.07;;;;;;;12.48;100.00;100553.34;4988644;28;20030;-61
2023/07/25 00:21:43;;;;;;;6.78;4.20;;;;;;;12.45;100.00;100558.47;4988976;28;20121;-60
2023/07/25 00:24:08;;;;;;;5.55;3.88;;;;;;;12.42;100.00;100553.22;4987788;28;20038;-61
2023/07/25 00:26:34;;;;;;;5.95;4.20;;;;;;;12.38;100.00;100549.69;4988948;28;20891;-60
2023/07/25 00:28:59;;;;;;;9.23;4.88;;;;;;;12.35;100.00;100549.63;4988277;28;20030;-61
2023/07/25 00:31:24;;;;;;;8.40;4.75;;;;;;;12.32;100.00;100549.59;4991646;28;20018;-60
2023/07/25 00:33:49;;;;;;;7.55;4.90;;;;;;;12.30;100.00;100543.47;4998562;28;20504;-61
2023/07/25 00:36:15;;;;;;;6.10;4.50;;;;;;;12.27;100.00;100549.47;4991082;28;20064;-60
2023/07/25 00:38:40;;;;;;;6.18;4.63;;;;;;;12.26;100.00;100547.72;4992696;28;20041;-60
2023/07/25 00:41:05;;;;;;;6.63;4.72;;;;;;;12.25;100.00;100551.16;4993750;28;20095;-61
2023/07/25 00:43:31;;;;;;;9.02;5.82;;;;;;;12.20;100.00;100548.47;4992851;28;20025;-60
2023/07/25 00:45:56;;;;;;;7.18;4.70;;;;;;;12.19;100.00;100551.03;4993762;28;20021;-60
2023/07/25 00:48:21;;;;;;;5.78;4.50;;;;;;;12.19;100.00;100553.66;4992925;28;20054;-60
2023/07/25 00:50:47;;;;;;;5.13;4.32;;;;;;;12.18;100.00;100554.50;4993724;28;20415;-60
2023/07/25 00:53:14;;;;;;;5.55;4.90;;;;;;;12.16;100.00;100546.66;4992200;28;20402;-60
2023/07/25 00:55:39;;;;;;;5.72;5.05;;;;;;;12.13;100.00;100546.59;4993268;28;20061;-60
2023/07/25 00:58:05;;;;;;;6.97;5.00;;;;;;;12.08;100.00;100543.00;5009251;28;20050;-60
2023/07/25 01:00:30;;;;;;;6.35;5.38;;;;;;;12.07;100.00;100546.44;5010377;28;20026;-60
2023/07/25 01:02:55;;;;;;;7.78;5.30;;;;;;;12.05;100.00;100550.72;4991753;28;20033;-60
2023/07/25 01:05:22;;;;;;;8.65;6.50;;;;;;;12.04;100.00;100547.25;4992267;28;20475;-60
2023/07/25 01:07:48;;;;;;;6.53;5.07;;;;;;;12.02;100.00;100548.94;5010736;28;20763;-61
2023/07/25 01:10:14;;;;;;;6.63;5.18;;;;;;;11.99;100.00;100548.88;5011133;28;20072;-60
2023/07/25 01:12:40;;;;;;;8.80;5.65;;;;;;;11.97;100.00;100541.06;5003270;28;20390;-60
2023/07/25 01:15:06;;;;;;;7.45;5.18;;;;;;;11.96;100.00;100535.81;4991422;28;20186;-61
2023/07/25 01:17:31;;;;;;;7.07;5.47;;;;;;;11.94;100.00;100535.81;4991388;28;20057;-60
2023/07/25 01:19:57;;;;;;;11.77;5.75;;;;;;;11.89;100.00;100540.88;4991989;28;20026;-60
2023/07/25 01:22:26;;;;;;;8.18;5.70;;;;;;;11.89;100.00;100542.63;5010503;28;20026;-60
2023/07/25 01:24:54;;;;;;;7.07;5.60;;;;;;;11.86;100.00;100540.81;5009936;28;20036;-60
2023/07/25 01:27:19;;;;;;;7.65;5.80;;;;;;;11.88;100.00;100535.66;5010860;28;20028;-60
2023/07/25 01:29:45;;;;;;;6.28;5.53;;;;;;;11.88;100.00;100536.53;4996473;28;20490;-60
2023/07/25 01:32:11;;;;;;;10.13;5.20;;;;;;;11.88;100.00;100538.25;4991414;28;20108;-60
2023/07/25 01:34:36;;;;;;;8.10;5.65;;;;;;;11.88;100.00;100533.06;4992078;28;20152;-60
2023/07/25 01:37:02;;;;;;;10.27;6.10;;;;;;;11.87;100.00;100533.91;4991927;28;20058;-59
2023/07/25 01:39:28;;;;;;;10.65;5.93;;;;;;;11.85;100.00;100522.63;4991538;28;20052;-60
2023/07/25 01:41:53;;;;;;;6.38;5.68;;;;;;;11.81;100.00;100520.78;4991894;28;20022;-61
2023/07/25 01:44:18;;;;;;;8.77;5.55;;;;;;;11.77;100.00;100538.91;4992207;28;20029;-60
2023/07/25 01:46:44;;;;;;;9.00;5.90;;;;;;;11.76;100.00;100526.75;4991822;28;20030;-60
2023/07/25 01:49:10;;;;;;;7.68;5.60;;;;;;;11.75;100.00;100524.13;4992064;28;20116;-60
2023/07/25 01:51:36;;;;;;;6.75;5.47;;;;;;;11.74;100.00;100519.78;4991530;28;20054;-61
2023/07/25 01:54:01;;;;;;;9.52;5.97;;;;;;;11.72;100.00;100513.66;4992017;28;20103;-60
2023/07/25 01:56:27;;;;;;;6.03;5.43;;;;;;;11.71;100.00;100519.72;4996395;28;20047;-60
2023/07/25 01:58:52;;;;;;;10.32;6.40;;;;;;;11.67;100.00;100511.00;4999129;28;20601;-60
2023/07/25 02:01:17;;;;;;;6.15;5.55;;;;;;;11.63;100.00;100515.22;4990408;28;20030;-60
2023/07/25 02:03:42;;;;;;;8.93;6.63;;;;;;;11.60;100.00;100516.88;4991002;28;20033;-60
2023/07/25 02:06:08;;;;;;;8.23;5.90;;;;;;;11.58;100.00;100522.03;4990565;28;20487;-61
2023/07/25 02:08:33;;;;;;;7.65;6.72;;;;;;;11.56;100.00;100518.53;4990999;28;20089;-61
2023/07/25 02:10:58;;;;;;;7.55;6.25;;;;;;;11.55;100.00;100516.75;5009322;28;20032;-60
2023/07/25 02:13:24;;;;;;;7.03;6.32;;;;;;;11.55;100.00;100510.72;5010084;28;20115;-61
2023/07/25 02:15:49;;;;;;;6.80;6.10;;;;;;;11.52;100.00;100509.78;5002972;28;20026;-60
2023/07/25 02:18:14;;;;;;;6.93;5.55;;;;;;;11.52;100.00;100512.38;4990238;28;20544;-62
2023/07/25 02:20:40;;;;;;;6.15;5.55;;;;;;;11.49;100.00;100520.13;4990758;28;20033;-61
2023/07/25 02:23:05;;;;;;;6.13;5.53;;;;;;;11.49;100.00;100516.63;4993984;28;20061;-61
2023/07/25 02:25:30;;;;;;;7.15;6.00;;;;;;;11.47;100.00;100508.81;5007841;28;20117;-61
2023/07/25 02:27:55;;;;;;;7.78;6.13;;;;;;;11.44;100.00;100507.88;5000601;28;20014;-60
2023/07/25 02:30:21;;;;;;;8.60;6.72;;;;;;;11.41;100.00;100513.84;4998113;28;20053;-60
2023/07/25 02:32:47;;;;;;;7.90;5.82;;;;;;;11.40;100.00;100506.91;4999183;28;20052;-60
2023/07/25 02:35:14;;;;;;;8.57;5.93;;;;;;;11.36;100.00;100503.38;4996576;28;20033;-60
2023/07/25 02:37:39;;;;;;;7.40;6.07;;;;;;;11.35;100.00;100503.34;4999715;28;20026;-60
2023/07/25 02:40:05;;;;;;;6.25;5.35;;;;;;;11.32;100.00;100503.25;5002685;28;20437;-60
2023/07/25 02:42:31;;;;;;;10.00;6.35;;;;;;;11.29;100.00;100494.59;5009195;28;20022;-60
2023/07/25 02:44:56;;;;;;;7.10;5.85;;;;;;;11.29;100.00;100496.28;5008645;28;20029;-60
2023/07/25 02:47:21;;;;;;;8.20;6.00;;;;;;;11.26;100.00;100504.84;5001398;28;20026;-60
2023/07/25 02:49:46;;;;;;;10.93;6.05;;;;;;;11.26;100.00;100515.22;5001935;28;20054;-61
2023/07/25 02:52:12;;;;;;;8.18;5.75;;;;;;;11.24;100.00;100516.91;4989694;28;20014;-60
2023/07/25 02:54:37;;;;;;;6.75;6.00;;;;;;;11.24;100.00;100510.88;4989948;28;20034;-60
2023/07/25 02:57:02;;;;;;;13.30;7.13;;;;;;;11.21;100.00;100509.06;4989626;28;20194;-60
2023/07/25 02:59:31;;;;;;;6.30;5.70;;;;;;;11.20;100.00;100514.22;5001873;28;20038;-61
2023/07/25 03:01:56;;;;;;;7.70;6.68;;;;;;;11.17;100.00;100517.63;4989453;28;20029;-61
2023/07/25 03:04:21;;;;;;;7.32;5.80;;;;;;;11.17;100.00;100515.03;4994426;28;20018;-61
2023/07/25 03:06:46;;;;;;;9.40;5.70;;;;;;;11.17;100.00;100515.88;5009089;28;20038;-60
2023/07/25 03:09:12;;;;;;;9.38;6.53;;;;;;;11.17;100.00;100504.66;5008068;28;20044;-60
2023/07/25 03:11:37;;;;;;;7.10;6.05;;;;;;;11.19;100.00;100507.28;5008665;28;20185;-60
2023/07/25 03:14:03;;;;;;;11.18;6.88;;;;;;;11.19;100.00;100507.28;5007232;28;20050;-59
2023/07/25 03:16:28;;;;;;;9.48;7.28;;;;;;;11.18;100.00;100511.59;5008155;28;20486;-61
2023/07/25 03:18:54;;;;;;;10.63;6.25;;;;;;;11.20;100.00;100501.25;5007495;28;20029;-60
2023/07/25 03:21:19;;;;;;;8.10;7.10;;;;;;;11.20;100.00;100504.72;5007950;28;20061;-60
2023/07/25 03:23:44;;;;;;;7.53;6.00;;;;;;;11.22;100.00;100513.44;5007134;28;20034;-60
2023/07/25 03:26:09;;;;;;;8.32;6.60;;;;;;;11.25;100.00;100513.50;5007105;28;20486;-60
2023/07/25 03:28:35;;;;;;;9.95;6.50;;;;;;;11.26;100.00;100504.00;5004494;28;20049;-61
2023/07/25 03:31:00;;;;;;;9.95;6.70;;;;;;;11.26;100.00;100502.25;5007222;28;20025;-60
2023/07/25 03:33:27;;;;;;;8.90;7.00;;;;;;;11.28;100.00;100492.81;5002859;28;20030;-60
2023/07/25 03:35:53;;;;;;;9.50;6.55;;;;;;;11.31;100.00;100494.63;4989146;28;20348;-60
2023/07/25 03:38:18;;;;;;;6.70;6.00;;;;;;;11.33;100.00;100495.53;5005464;28;20029;-59
2023/07/25 03:40:43;;;;;;;13.98;7.82;;;;;;;11.34;100.00;100496.38;5008377;28;20034;-60
2023/07/25 03:43:08;;;;;;;8.63;7.28;;;;;;;11.34;100.00;100496.38;5007318;28;20071;-61
2023/07/25 03:45:34;;;;;;;11.27;7.20;;;;;;;11.36;100.00;100495.59;5006773;28;20041;-61
2023/07/25 03:47:59;;;;;;;13.00;7.35;;;;;;;11.38;100.00;100499.09;5005184;28;20389;-60
2023/07/25 03:50:26;;;;;;;8.30;6.65;;;;;;;11.40;100.00;100501.72;5005694;28;20076;-62
2023/07/25 03:52:51;;;;;;;9.93;7.45;;;;;;;11.39;100.00;100499.97;5003613;28;20034;-61
2023/07/25 03:55:16;;;;;;;8.23;7.32;;;;;;;11.42;100.00;100500.06;5005910;28;20037;-61
2023/07/25 03:57:41;;;;;;;10.32;6.63;;;;;;;11.44;100.00;100494.91;5004986;28;20030;-60
2023/07/25 04:00:07;;;;;;;8.05;6.70;;;;;;;11.45;100.00;100502.72;5006025;28;20022;-60
2023/07/25 04:02:32;;;;;;;8.90;6.88;;;;;;;11.46;100.00;100501.84;5006130;28;20354;-60
2023/07/25 04:04:58;;;;;;;8.93;6.53;;;;;;;11.48;100.00;100505.38;5007752;28;20041;-60
2023/07/25 04:07:23;;;;;;;11.07;7.30;;;;;;;11.48;100.00;100509.66;5007180;28;20022;-60
2023/07/25 04:09:48;;;;;;;9.13;7.07;;;;;;;11.48;100.00;100504.47;5007580;28;20030;-61
2023/07/25 04:12:14;;;;;;;8.90;7.07;;;;;;;11.49;100.00;100503.66;5006901;28;20022;-60
2023/07/25 04:14:39;;;;;;;12.05;6.43;;;;;;;11.51;100.00;100508.03;5008040;28;20053;-60
2023/07/25 04:17:05;;;;;;;8.05;7.03;;;;;;;11.51;100.00;100505.44;5007292;28;20104;-61
2023/07/25 04:19:30;;;;;;;8.00;7.30;;;;;;;11.53;100.00;100501.16;5007290;28;20109;-60
2023/07/25 04:21:55;;;;;;;9.02;7.03;;;;;;;11.52;100.00;100502.00;5006956;28;20030;-61
2023/07/25 04:24:21;;;;;;;7.40;6.57;;;;;;;11.52;100.00;100499.41;5007314;28;20120;-61
2023/07/25 04:26:46;;;;;;;9.35;7.07;;;;;;;11.53;100.00;100503.75;5003373;28;20029;-61
2023/07/25 04:29:11;;;;;;;8.63;6.78;;;;;;;11.53;100.00;100503.75;4987963;28;20026;-61
2023/07/25 04:31:36;;;;;;;9.15;6.82;;;;;;;11.53;100.00;100508.94;4990590;28;20030;-60
2023/07/25 04:34:02;;;;;;;11.98;8.18;;;;;;;11.53;100.00;100503.75;5007634;28;20116;-60
2023/07/25 04:36:28;;;;;;;9.25;7.80;;;;;;;11.53;100.00;100506.34;5005502;28;20400;-61
2023/07/25 04:38:55;;;;;;;10.43;6.80;;;;;;;11.53;100.00;100505.50;5006643;28;20672;-60
2023/07/25 04:41:20;;;;;;;9.85;7.72;;;;;;;11.51;100.00;100505.44;5005583;28;20029;-60
2023/07/25 04:43:45;;;;;;;13.30;7.88;;;;;;;11.52;100.00;100511.50;5007068;28;20021;-59
2023/07/25 04:46:11;;;;;;;15.55;8.45;;;;;;;11.53;100.00;100514.13;5005058;28;20484;-60
2023/07/25 04:48:36;;;;;;;9.85;8.10;;;;;;;11.54;100.00;100504.63;5006697;28;20109;-60
2023/07/25 04:51:01;;;;;;;11.13;7.40;;;;;;;11.59;100.00;100512.50;5004886;28;20045;-60
2023/07/25 04:53:27;;;;;;;9.13;7.38;;;;;;;11.61;100.00;100513.44;5006701;28;20108;-60
2023/07/25 04:55:52;;;;;;;14.55;8.00;;;;;;;11.64;100.00;100508.31;5005769;28;20030;-61
2023/07/25 04:58:17;;;;;;;10.75;8.43;;;;;;;11.68;100.00;100501.47;5005996;28;20037;-60
2023/07/25 05:00:42;;;;;;;10.00;7.65;;;;;;;11.71;100.00;100506.75;5002838;28;20026;-60
2023/07/25 05:03:08;;;;;;;9.05;7.63;;;;;;;11.73;100.00;100503.31;4996874;28;20033;-60
2023/07/25 05:05:33;;;;;;;11.88;8.27;;;;;;;11.80;100.00;100495.69;5007070;28;20144;-60
2023/07/25 05:07:58;;;;;;;10.30;8.18;;;;;;;11.88;100.00;100507.09;5007252;28;20018;-60
2023/07/25 05:10:23;;;;;;;10.40;7.95;;;;;;;11.96;100.00;100505.53;5006526;28;20014;-61
2023/07/25 05:12:49;;;;;;;9.68;8.13;;;;;;;12.07;100.00;100508.34;5007031;28;20120;-60
2023/07/25 05:15:14;;;;;;;9.65;8.65;;;;;;;12.19;100.00;100506.88;5006676;28;20033;-61
2023/07/25 05:17:39;;;;;;;11.20;8.07;;;;;;;12.28;100.00;100503.59;5007251;28;20029;-60
2023/07/25 05:20:05;;;;;;;12.95;8.48;;;;;;;12.39;100.00;100506.41;5006631;28;20029;-60
2023/07/25 05:22:31;;;;;;;9.57;7.70;;;;;;;12.47;100.00;100518.69;5008624;28;20397;-60
2023/07/25 05:24:56;;;;;;;9.50;8.40;;;;;;;12.56;100.00;100511.91;4998177;28;20022;-60
2023/07/25 05:27:21;;;;;;;11.63;8.55;;;;;;;12.63;100.00;100516.38;5010633;28;20049;-60
2023/07/25 05:29:46;;;;;;;10.57;8.00;;;;;;;12.68;100.00;100519.94;5010511;28;20777;-60
2023/07/25 05:32:12;;;;;;;10.80;8.55;;;;;;;12.70;100.00;100512.19;5010291;28;20014;-61
2023/07/25 05:34:37;;;;;;;11.05;8.10;;;;;;;12.73;100.00;100512.22;4997201;28;20037;-60
2023/07/25 05:37:02;;;;;;;13.65;8.70;;;;;;;12.78;100.00;100517.50;5010732;28;20037;-61
2023/07/25 05:39:28;;;;;;;11.32;8.00;;;;;;;12.84;100.00;100520.22;5006433;28;20051;-61
2023/07/25 05:41:53;;;;;;;13.75;7.63;;;;;;;12.88;100.00;100514.22;4999160;28;20038;-61
2023/07/25 05:44:18;;;;;;;11.57;7.82;;;;;;;12.95;100.00;100529.06;4995015;28;20398;-61
2023/07/25 05:46:43;;;;;;;10.23;8.07;;;;;;;13.00;100.00;100525.69;4995383;28;20026;-60
2023/07/25 05:49:09;;;;;;;10.10;6.68;;;;;;;13.05;100.00;100531.84;4992015;28;20041;-60
2023/07/25 05:51:34;;;;;;;9.13;7.50;;;;;;;13.08;100.00;100529.28;5001736;28;20045;-61
2023/07/25 05:53:59;;;;;;;7.80;6.25;;;;;;;13.15;100.00;100536.34;5003458;28;20030;-61
2023/07/25 05:56:24;;;;;;;10.70;7.35;;;;;;;13.23;100.00;100532.97;4999807;28;20021;-61
2023/07/25 05:58:50;;;;;;;9.30;7.05;;;;;;;13.32;100.00;100527.94;4990220;28;20039;-60
2023/07/25 06:01:15;;;;;;;9.32;6.45;;;;;;;13.38;100.00;100528.03;4992035;28;20549;-60
2023/07/25 06:03:40;;;;;;;9.70;6.63;;;;;;;13.48;100.00;100533.34;4992086;28;20076;-61
2023/07/25 06:06:06;;;;;;;9.77;6.28;;;;;;;13.53;100.00;100537.81;5000426;28;20359;-61
2023/07/25 06:08:31;;;;;;;10.15;6.45;;;;;;;13.58;100.00;100524.91;4996358;28;20114;-60
2023/07/25 06:10:56;;;;;;;11.30;6.28;;;;;;;13.60;100.00;100527.50;4989983;28;20590;-60
2023/07/25 06:13:21;;;;;;;9.35;6.30;;;;;;;13.62;100.00;100529.28;4990389;28;20022;-60
2023/07/25 06:15:48;;;;;;;8.85;6.28;;;;;;;13.63;100.00;100527.56;4990315;28;20129;-60
2023/07/25 06:18:14;;;;;;;7.55;6.72;;;;;;;13.65;100.00;100531.91;4990741;28;20364;-60
2023/07/25 06:20:39;;;;;;;7.80;6.88;;;;;;;13.68;100.00;100533.69;5009628;28;20036;-61
2023/07/25 06:23:05;;;;;;;6.28;5.68;;;;;;;13.71;100.00;100530.28;5008306;28;20030;-60
2023/07/25 06:25:30;;;;;;;7.38;5.97;;;;;;;13.73;100.00;100529.44;5002450;28;20108;-60
2023/07/25 06:27:55;;;;;;;7.78;5.47;;;;;;;13.76;100.00;100528.59;5004338;28;20046;-60
2023/07/25 06:30:21;;;;;;;8.75;4.97;;;;;;;13.80;100.00;100533.88;5004704;28;20049;-62
2023/07/25 06:32:46;;;;;;;8.82;5.20;;;;;;;13.85;100.00;100544.34;5003123;28;20095;-63
2023/07/25 06:35:12;;;;;;;7.72;5.25;;;;;;;13.92;100.00;100545.31;5007986;28;20025;-62
2023/07/25 06:37:38;;;;;;;7.60;4.78;;;;;;;13.99;100.00;100546.28;5008211;28;20045;-62
2023/07/25 06:40:04;;;;;;;9.40;5.10;;;;;;;14.10;100.00;100549.00;5008983;28;20026;-62
2023/07/25 06:42:30;;;;;;;5.40;4.20;;;;;;;14.18;100.00;100544.75;5007712;28;20038;-62
2023/07/25 06:44:58;;;;;;;6.00;3.95;;;;;;;14.23;100.00;100552.66;5005231;28;20037;-63
2023/07/25 06:47:24;;;;;;;6.28;3.90;;;;;;;14.22;100.00;100546.56;5002341;28;20033;-62
2023/07/25 06:49:49;;;;;;;8.40;3.78;;;;;;;14.27;100.00;100549.22;4993204;28;20100;-63
2023/07/25 06:52:15;;;;;;;8.25;4.10;;;;;;;14.31;100.00;100545.78;4989913;28;20502;-64
2023/07/25 06:54:42;;;;;;;5.30;3.42;;;;;;;14.35;100.00;100542.38;4996584;28;20355;-64
2023/07/25 06:57:07;;;;;;;8.15;3.20;;;;;;;14.52;100.00;100544.28;4994111;28;20049;-64
2023/07/25 06:59:32;;;;;;;8.10;3.03;;;;;;;14.76;100.00;100545.41;5005382;28;20034;-63
2023/07/25 07:01:58;;;;;;;6.60;3.10;;;;;;;14.99;100.00;100542.16;5000127;28;20025;-63
2023/07/25 07:04:23;;;;;;;8.30;2.90;;;;;;;15.22;100.00;100546.69;5005774;28;20025;-63
2023/07/25 07:06:48;;;;;;;6.63;2.72;;;;;;;15.56;100.00;100548.72;4997220;28;20045;-62
2023/07/25 07:09:14;;;;;;;7.82;2.83;;;;;;;15.89;100.00;100541.03;4998403;28;20105;-64
2023/07/25 07:11:40;;;;;;;9.15;3.03;;;;;;;16.11;100.00;100547.28;4999479;28;20470;-63
2023/07/25 07:14:05;;;;;;;4.90;2.28;;;;;;;16.30;100.00;100548.22;5004601;28;20025;-62
2023/07/25 07:16:31;;;;;;;6.88;2.95;;;;;;;16.48;100.00;100546.53;4994417;28;20025;-63
2023/07/25 07:18:56;;;;;;;5.97;2.15;;;;;;;16.69;100.00;100550.09;5003714;28;20034;-63
2023/07/25 07:21:21;;;;;;;5.25;2.30;;;;;;;16.82;100.00;100557.97;4992182;28;20037;-62
2023/07/25 07:23:47;;;;;;;4.15;1.50;;;;;;;16.90;100.00;100558.81;4995341;28;20553;-63
2023/07/25 07:26:12;;;;;;;10.07;2.33;;;;;;;16.93;100.00;100564.06;4993250;28;20026;-62
2023/07/25 07:28:37;;;;;;;5.50;1.90;;;;;;;16.89;100.00;100557.94;4998421;28;20030;-63
2023/07/25 07:31:04;;;;;;;7.57;2.03;;;;;;;16.86;100.00;100562.31;4996604;28;20022;-64
2023/07/25 07:33:30;;;;;;;8.45;2.20;;;;;;;16.71;100.00;100558.81;4997669;28;20036;-63
2023/07/25 07:35:55;;;;;;;6.40;1.90;;;;;;;16.65;100.00;100559.66;4993052;28;20022;-63
2023/07/25 07:38:21;;;;;;;8.18;2.55;;;;;;;16.59;100.00;100556.16;4997881;28;20033;-63
2023/07/25 07:40:46;;;;;;;6.95;2.53;;;;;;;16.53;100.00;100559.63;4998483;28;20532;-63
2023/07/25 07:43:14;;;;;;;7.07;2.13;;;;;;;16.47;100.00;100570.94;5003530;28;20079;-64
2023/07/25 07:45:39;;;;;;;8.63;3.30;;;;;;;16.43;100.00;100566.56;5001637;28;20080;-63
2023/07/25 07:48:05;;;;;;;8.43;2.28;;;;;;;16.37;100.00;100570.03;4997510;28;20079;-63
2023/07/25 07:50:33;;;;;;;10.35;2.50;;;;;;;16.34;100.00;100570.03;5005039;28;20038;-62
2023/07/25 07:52:59;;;;;;;5.05;2.00;;;;;;;16.30;100.00;100569.13;5005689;28;20037;-63
2023/07/25 07:55:24;;;;;;;5.57;2.00;;;;;;;16.24;100.00;100569.13;5006445;28;20038;-64
2023/07/25 07:57:49;;;;;;;5.75;2.22;;;;;;;16.21;100.00;100571.72;5004474;28;20371;-63
2023/07/25 08:00:15;;;;;;;6.50;1.90;;;;;;;16.22;100.00;100577.81;4996146;28;20030;-64
2023/07/25 08:02:42;;;;;;;5.43;1.90;;;;;;;16.21;100.00;100584.78;5006895;28;20478;-63
2023/07/25 08:05:08;;;;;;;7.57;2.10;;;;;;;16.18;100.00;100584.78;5007816;28;20049;-64
2023/07/25 08:07:34;;;;;;;6.10;2.20;;;;;;;16.10;100.00;100589.09;5003512;28;20057;-63
2023/07/25 08:09:59;;;;;;;5.50;1.55;;;;;;;16.05;100.00;100595.16;4989026;28;20491;-63
2023/07/25 08:12:25;;;;;;;3.70;1.33;;;;;;;15.97;100.00;100591.63;4994365;28;20026;-63
2023/07/25 08:14:50;;;;;;;5.68;1.30;;;;;;;15.89;100.00;100590.69;4996238;28;20105;-63
2023/07/25 08:17:15;;;;;;;5.25;1.55;;;;;;;15.82;100.00;100593.28;5000537;28;20045;-63
2023/07/25 08:19:41;;;;;;;4.10;1.27;;;;;;;15.76;100.00;100594.97;4993835;28;20034;-64
2023/07/25 08:22:06;;;;;;;3.65;1.38;;;;;;;15.73;100.00;100590.59;5002120;28;20084;-62
2023/07/25 08:24:32;;;;;;;6.35;1.50;;;;;;;15.72;100.00;100594.09;5004061;28;20026;-63
2023/07/25 08:26:59;;;;;;;3.47;1.20;;;;;;;15.76;100.00;100595.81;4992184;28;20451;-63
2023/07/25 08:29:24;;;;;;;4.32;1.30;;;;;;;15.79;100.00;100593.25;4991834;28;20077;-63
2023/07/25 08:31:50;;;;;;;5.53;1.60;;;;;;;15.85;100.00;100598.50;4999982;28;20022;-63
2023/07/25 08:34:15;;;;;;;5.53;1.40;;;;;;;15.91;100.00;100596.78;5007410;28;20414;-64
2023/07/25 08:36:40;;;;;;;5.40;1.50;;;;;;;15.96;100.00;100602.91;5007219;28;20030;-63
2023/07/25 08:39:05;;;;;;;5.38;1.45;;;;;;;16.01;100.00;100601.22;4998663;28;20026;-63
2023/07/25 08:41:35;;;;;;;4.53;1.25;;;;;;;16.08;100.00;100605.63;4997634;28;20022;-63
2023/07/25 08:44:01;;;;;;;3.05;1.08;;;;;;;16.19;100.00;100602.22;4995730;28;20049;-63
2023/07/25 08:46:27;;;;;;;6.35;1.60;;;;;;;16.36;100.00;100604.00;5000521;28;20027;-63
2023/07/25 08:48:59;;;;;;;8.20;1.40;;;;;;;16.51;100.00;100609.34;5004858;28;20041;-63
2023/07/25 08:51:27;;;;;;;5.78;1.20;;;;;;;16.64;100.00;100617.22;5006981;28;20026;-62
2023/07/25 08:54:09;;;;;;;9.10;1.40;;;;;;;16.73;100.00;100619.84;4996198;28;20097;-64
2023/07/25 08:56:35;;;;;;;8.10;1.13;;;;;;;16.85;100.00;100623.38;4998223;28;20041;-64
2023/07/25 08:59:02;;;;;;;2.88;0.90;;;;;;;16.96;100.00;100621.66;4998591;28;20018;-63
2023/07/25 09:01:28;;;;;;;3.70;1.08;;;;;;;17.12;100.00;100621.72;4996011;28;20461;-64
2023/07/25 09:03:54;;;;;;;3.53;0.85;;;;;;;17.24;100.00;100620.84;5006005;28;20030;-64
2023/07/25 09:06:20;;;;;;;3.45;1.20;;;;;;;17.32;100.00;100628.72;5011299;28;20292;-63
2023/07/25 09:08:46;;;;;;;3.20;0.95;;;;;;;17.37;100.00;100622.59;5009196;28;20034;-64
2023/07/25 09:11:15;;;;;;;3.40;1.30;;;;;;;17.39;99.38;100633.06;4994761;28;20097;-63
2023/07/25 09:13:41;;;;;;;4.25;0.98;;;;;;;17.37;96.57;100630.47;5004041;28;20065;-63
2023/07/25 09:16:06;;;;;;;4.65;1.38;;;;;;;17.40;95.80;100632.19;5007611;28;20056;-63
2023/07/25 09:18:31;;;;;;;2.65;0.90;;;;;;;17.40;94.77;100630.44;5006479;28;20045;-63
2023/07/25 09:20:57;;;;;;;2.72;0.95;;;;;;;17.44;96.68;100631.31;5008345;28;20022;-63
2023/07/25 09:23:22;;;;;;;4.15;0.85;;;;;;;17.55;96.61;100635.69;5005946;28;20040;-64
2023/07/25 09:25:49;;;;;;;3.33;1.10;;;;;;;17.64;95.44;100631.34;4995976;28;20152;-64
2023/07/25 09:28:14;;;;;;;5.18;1.17;;;;;;;17.75;97.38;100633.91;4999114;28;20030;-63
2023/07/25 09:30:47;;;;;;;3.92;1.27;;;;;;;17.96;95.94;100626.91;5009604;28;20029;-64
2023/07/25 09:33:24;;;;;;;3.40;0.90;;;;;;;18.36;97.90;100625.06;5000968;28;20026;-63
2023/07/25 09:35:50;;;;;;;4.32;1.35;;;;;;;18.68;90.22;100633.66;5010445;28;20539;-64
2023/07/25 09:38:16;;;;;;;2.22;1.10;;;;;;;19.02;89.04;100630.84;4992845;28;20474;-63
2023/07/25 09:40:41;;;;;;;3.13;1.10;;;;;;;19.19;85.69;100632.53;4991606;28;20022;-63
2023/07/25 09:43:06;;;;;;;3.88;0.90;;;;;;;19.24;83.61;100635.13;4991180;28;20518;-63
2023/07/25 09:45:36;;;;;;;4.85;1.23;;;;;;;19.20;83.32;100639.50;4992544;28;20028;-63
2023/07/25 09:48:03;;;;;;;3.53;1.67;;;;;;;19.03;85.48;100643.09;4996687;28;20026;-63
2023/07/25 09:50:33;;;;;;;2.33;0.90;;;;;;;18.80;82.09;100643.22;4998263;28;20660;-63
2023/07/25 09:53:01;;;;;;;2.22;0.73;;;;;;;18.77;82.88;100638.00;4997308;28;20017;-63
2023/07/25 09:55:27;;;;;;;4.53;1.50;;;;;;;19.00;87.75;100642.22;5007214;28;20049;-64
2023/07/25 09:57:53;;;;;;;2.88;0.88;;;;;;;19.20;82.82;100639.50;5000565;28;20462;-63
2023/07/25 10:00:18;;;;;;;2.13;0.90;;;;;;;19.39;85.35;100648.13;4996497;28;20101;-63
2023/07/25 10:02:44;;;;;;;3.55;0.95;;;;;;;19.62;82.03;100639.19;4995953;28;20022;-63
2023/07/25 10:05:09;;;;;;;3.40;1.00;;;;;;;19.76;78.06;100638.19;4999269;28;20021;-63
2023/07/25 10:07:36;;;;;;;3.70;1.00;;;;;;;19.79;77.28;100638.13;5000638;28;20034;-64
2023/07/25 10:10:03;;;;;;;3.60;0.80;;;;;;;19.67;77.54;100640.03;5002870;28;20100;-64
2023/07/25 10:12:29;;;;;;;4.78;1.30;;;;;;;19.46;76.65;100641.09;5008917;28;20482;-63
2023/07/25 10:14:55;;;;;;;3.28;1.02;;;;;;;19.23;78.48;100639.47;5003467;28;20040;-64
2023/07/25 10:17:22;;;;;;;6.07;0.90;;;;;;;18.98;77.72;100638.78;4991171;28;20057;-63
2023/07/25 10:19:50;;;;;;;1.90;0.90;;;;;;;18.89;78.99;100643.19;4996262;28;20557;-63
2023/07/25 10:22:17;;;;;;;4.13;1.15;;;;;;;18.96;81.58;100642.25;5006665;28;20093;-63
2023/07/25 10:24:42;;;;;;;2.33;0.85;;;;;;;19.13;82.10;100640.44;5007154;28;20541;-64
2023/07/25 10:27:11;;;;;;;4.75;1.17;;;;;;;19.33;79.78;100640.31;5008579;28;20186;-64
2023/07/25 10:29:44;;;;;;;5.18;1.10;;;;;;;19.55;76.26;100635.72;5000684;28;20041;-64
2023/07/25 10:32:22;;;;;;;3.08;0.75;;;;;;;19.83;80.74;100634.59;5008631;28;20481;-63
2023/07/25 10:34:48;;;;;;;4.38;1.25;;;;;;;19.86;74.90;100634.56;5007795;28;20025;-65
2023/07/25 10:37:38;;;;;;;4.00;1.40;;;;;;;19.88;76.65;100626.66;5009367;28;20502;-63
2023/07/25 10:40:13;;;;;;;4.10;1.00;;;;;;;20.06;75.73;100630.88;5008117;28;20041;-63
2023/07/25 10:42:56;;;;;;;2.17;1.23;;;;;;;20.32;80.21;100627.09;5008655;28;20025;-64
2023/07/25 10:45:45;;;;;;;2.25;1.20;;;;;;;20.42;75.65;100627.84;5007907;28;20029;-63
2023/07/25 10:48:33;;;;;;;7.65;1.92;;;;;;;20.30;72.62;100630.63;4991310;28;20080;-63
2023/07/25 10:51:00;;;;;;;3.28;0.90;;;;;;;20.00;72.62;100636.19;5001928;28;20237;-63
2023/07/25 10:53:27;;;;;;;3.38;1.00;;;;;;;20.01;79.87;100632.66;5006220;28;20018;-63
2023/07/25 10:56:04;;;;;;;2.40;0.77;;;;;;;20.07;74.84;100635.28;5006153;28;20399;-63
2023/07/25 10:58:38;;;;;;;2.95;1.00;;;;;;;19.95;70.41;100632.75;5005504;28;20041;-64
2023/07/25 11:01:03;;;;;;;3.35;0.90;;;;;;;20.08;73.11;100633.50;5004783;28;20018;-63
2023/07/25 11:03:34;;;;;;;3.20;1.10;;;;;;;20.26;73.64;100625.41;4999023;28;20041;-62
2023/07/25 11:06:08;;;;;;;0.95;0.50;;;;;;;20.56;75.99;100625.03;4993194;28;20026;-63
2023/07/25 11:08:38;;;;;;;1.92;0.73;;;;;;;20.76;74.95;100616.88;4991381;28;20039;-65
2023/07/25 11:11:05;;;;;;;5.72;1.38;;;;;;;20.71;70.96;100628.34;4999775;28;20048;-63
2023/07/25 11:13:35;;;;;;;5.30;1.13;;;;;;;20.43;68.24;100624.34;5004231;28;20025;-62